sensor_id;sensor_type;location;lat;lon;timestamp;P1;durP1;ratioP1;P2;durP2;ratioP2
25938;SDS011;13739;51.172;4.466;2023-03-21T00:00:39;13.68;;;6.60;;
25938;SDS011;13739;51.172;4.466;2023-03-21T00:03:05;13.98;;;6.10;;
25938;SDS011;13739;51.172;4.466;2023-03-21T00:05:31;14.35;;;6.25;;
25938;SDS011;13739;51.172;4.466;2023-03-21T00:07:57;15.35;;;6.25;;
25938;SDS011;13739;51.172;4.466;2023-03-21T00:10:23;11.15;;;5.55;;
25938;SDS011;13739;51.172;4.466;2023-03-21T00:12:48;15.50;;;5.07;;
25938;SDS011;13739;51.172;4.466;2023-03-21T00:15:22;15.52;;;6.43;;
25938;SDS011;13739;51.172;4.466;2023-03-21T00:17:53;11.00;;;5.95;;
25938;SDS011;13739;51.172;4.466;2023-03-21T00:20:22;13.70;;;6.28;;
25938;SDS011;13739;51.172;4.466;2023-03-21T00:22:48;19.42;;;6.35;;
25938;SDS011;13739;51.172;4.466;2023-03-21T00:25:13;13.10;;;5.70;;
25938;SDS011;13739;51.172;4.466;2023-03-21T00:27:39;14.13;;;5.60;;
25938;SDS011;13739;51.172;4.466;2023-03-21T00:30:05;15.45;;;6.50;;
25938;SDS011;13739;51.172;4.466;2023-03-21T00:32:31;17.80;;;5.97;;
25938;SDS011;13739;51.172;4.466;2023-03-21T00:34:57;12.75;;;5.72;;
25938;SDS011;13739;51.172;4.466;2023-03-21T00:37:22;16.33;;;5.72;;
25938;SDS011;13739;51.172;4.466;2023-03-21T00:39:48;12.52;;;6.22;;
25938;SDS011;13739;51.172;4.466;2023-03-21T00:42:14;12.68;;;5.85;;
25938;SDS011;13739;51.172;4.466;2023-03-21T00:44:40;14.05;;;6.40;;
25938;SDS011;13739;51.172;4.466;2023-03-21T00:47:07;18.95;;;6.28;;
25938;SDS011;13739;51.172;4.466;2023-03-21T00:49:34;15.88;;;5.88;;
25938;SDS011;13739;51.172;4.466;2023-03-21T00:52:03;16.63;;;4.95;;
25938;SDS011;13739;51.172;4.466;2023-03-21T00:54:31;12.00;;;5.20;;
25938;SDS011;13739;51.172;4.466;2023-03-21T00:56:57;12.43;;;5.07;;
25938;SDS011;13739;51.172;4.466;2023-03-21T00:59:23;14.35;;;5.47;;
25938;SDS011;13739;51.172;4.466;2023-03-21T01:01:49;13.88;;;5.13;;
25938;SDS011;13739;51.172;4.466;2023-03-21T01:04:17;12.30;;;5.40;;
25938;SDS011;13739;51.172;4.466;2023-03-21T01:06:45;16.15;;;5.70;;
25938;SDS011;13739;51.172;4.466;2023-03-21T01:09:19;11.85;;;5.88;;
25938;SDS011;13739;51.172;4.466;2023-03-21T01:11:47;16.20;;;5.70;;
25938;SDS011;13739;51.172;4.466;2023-03-21T01:14:14;16.08;;;5.47;;
25938;SDS011;13739;51.172;4.466;2023-03-21T01:16:41;12.75;;;5.50;;
25938;SDS011;13739;51.172;4.466;2023-03-21T01:19:10;13.13;;;4.80;;
25938;SDS011;13739;51.172;4.466;2023-03-21T01:21:38;14.70;;;5.38;;
25938;SDS011;13739;51.172;4.466;2023-03-21T01:24:04;11.73;;;5.15;;
25938;SDS011;13739;51.172;4.466;2023-03-21T01:26:30;11.27;;;5.28;;
25938;SDS011;13739;51.172;4.466;2023-03-21T01:28:56;14.63;;;5.13;;
25938;SDS011;13739;51.172;4.466;2023-03-21T01:31:21;14.02;;;4.82;;
25938;SDS011;13739;51.172;4.466;2023-03-21T01:33:47;15.32;;;5.78;;
25938;SDS011;13739;51.172;4.466;2023-03-21T01:36:17;14.70;;;5.10;;
25938;SDS011;13739;51.172;4.466;2023-03-21T01:38:45;12.45;;;5.32;;
25938;SDS011;13739;51.172;4.466;2023-03-21T01:44:03;16.05;;;5.78;;
25938;SDS011;13739;51.172;4.466;2023-03-21T01:46:42;12.85;;;5.57;;
25938;SDS011;13739;51.172;4.466;2023-03-21T01:49:25;13.73;;;5.18;;
25938;SDS011;13739;51.172;4.466;2023-03-21T01:51:59;14.00;;;5.50;;
25938;SDS011;13739;51.172;4.466;2023-03-21T01:54:29;14.80;;;5.10;;
25938;SDS011;13739;51.172;4.466;2023-03-21T01:57:02;11.43;;;4.50;;
25938;SDS011;13739;51.172;4.466;2023-03-21T01:59:34;18.45;;;5.28;;
25938;SDS011;13739;51.172;4.466;2023-03-21T02:02:23;14.10;;;5.25;;
25938;SDS011;13739;51.172;4.466;2023-03-21T02:04:52;14.00;;;5.50;;
25938;SDS011;13739;51.172;4.466;2023-03-21T02:07:31;16.95;;;5.57;;
25938;SDS011;13739;51.172;4.466;2023-03-21T02:10:01;12.43;;;4.68;;
25938;SDS011;13739;51.172;4.466;2023-03-21T02:12:31;12.35;;;5.20;;
25938;SDS011;13739;51.172;4.466;2023-03-21T02:14:58;15.82;;;5.35;;
25938;SDS011;13739;51.172;4.466;2023-03-21T02:20:06;12.82;;;5.07;;
25938;SDS011;13739;51.172;4.466;2023-03-21T02:30:37;20.50;;;5.85;;
25938;SDS011;13739;51.172;4.466;2023-03-21T02:39:03;15.63;;;5.20;;
25938;SDS011;13739;51.172;4.466;2023-03-21T02:46:54;15.40;;;5.78;;
25938;SDS011;13739;51.172;4.466;2023-03-21T02:49:33;16.65;;;5.35;;
25938;SDS011;13739;51.172;4.466;2023-03-21T02:52:16;17.52;;;5.75;;
25938;SDS011;13739;51.172;4.466;2023-03-21T02:54:45;11.60;;;5.45;;
25938;SDS011;13739;51.172;4.466;2023-03-21T02:57:13;16.33;;;5.82;;
25938;SDS011;13739;51.172;4.466;2023-03-21T02:59:40;13.00;;;5.68;;
25938;SDS011;13739;51.172;4.466;2023-03-21T03:02:07;19.45;;;6.43;;
25938;SDS011;13739;51.172;4.466;2023-03-21T03:04:33;12.68;;;5.55;;
25938;SDS011;13739;51.172;4.466;2023-03-21T03:12:15;16.92;;;6.07;;
25938;SDS011;13739;51.172;4.466;2023-03-21T03:15:09;18.35;;;5.85;;
25938;SDS011;13739;51.172;4.466;2023-03-21T03:20:27;14.43;;;5.25;;
25938;SDS011;13739;51.172;4.466;2023-03-21T03:23:10;19.55;;;6.18;;
25938;SDS011;13739;51.172;4.466;2023-03-21T03:25:51;15.20;;;6.03;;
25938;SDS011;13739;51.172;4.466;2023-03-21T03:28:30;20.60;;;5.82;;
25938;SDS011;13739;51.172;4.466;2023-03-21T03:31:00;13.50;;;5.63;;
25938;SDS011;13739;51.172;4.466;2023-03-21T03:33:27;13.00;;;6.00;;
25938;SDS011;13739;51.172;4.466;2023-03-21T03:35:55;15.88;;;5.38;;
25938;SDS011;13739;51.172;4.466;2023-03-21T03:38:22;20.65;;;6.10;;
25938;SDS011;13739;51.172;4.466;2023-03-21T03:40:54;13.75;;;5.65;;
25938;SDS011;13739;51.172;4.466;2023-03-21T03:43:25;17.75;;;6.45;;
25938;SDS011;13739;51.172;4.466;2023-03-21T03:46:01;12.15;;;5.10;;
25938;SDS011;13739;51.172;4.466;2023-03-21T03:48:43;17.35;;;6.00;;
25938;SDS011;13739;51.172;4.466;2023-03-21T03:54:01;14.82;;;5.30;;
25938;SDS011;13739;51.172;4.466;2023-03-21T03:56:30;17.15;;;5.80;;
25938;SDS011;13739;51.172;4.466;2023-03-21T03:58:57;18.65;;;5.47;;
25938;SDS011;13739;51.172;4.466;2023-03-21T04:01:25;16.45;;;6.35;;
25938;SDS011;13739;51.172;4.466;2023-03-21T04:03:51;14.50;;;5.75;;
25938;SDS011;13739;51.172;4.466;2023-03-21T04:06:17;15.18;;;6.00;;
25938;SDS011;13739;51.172;4.466;2023-03-21T04:08:43;14.40;;;5.13;;
25938;SDS011;13739;51.172;4.466;2023-03-21T04:11:09;12.00;;;5.20;;
25938;SDS011;13739;51.172;4.466;2023-03-21T04:13:37;13.98;;;5.28;;
25938;SDS011;13739;51.172;4.466;2023-03-21T04:16:03;15.70;;;5.43;;
25938;SDS011;13739;51.172;4.466;2023-03-21T04:18:29;17.83;;;5.45;;
25938;SDS011;13739;51.172;4.466;2023-03-21T04:20:54;13.27;;;4.88;;
25938;SDS011;13739;51.172;4.466;2023-03-21T04:23:20;14.50;;;5.18;;
25938;SDS011;13739;51.172;4.466;2023-03-21T04:25:47;10.60;;;4.75;;
25938;SDS011;13739;51.172;4.466;2023-03-21T04:28:14;12.35;;;4.45;;
25938;SDS011;13739;51.172;4.466;2023-03-21T04:30:40;9.55;;;5.00;;
25938;SDS011;13739;51.172;4.466;2023-03-21T04:33:06;15.43;;;5.03;;
25938;SDS011;13739;51.172;4.466;2023-03-21T04:35:32;14.88;;;4.80;;
25938;SDS011;13739;51.172;4.466;2023-03-21T04:37:58;17.30;;;5.32;;
25938;SDS011;13739;51.172;4.466;2023-03-21T04:40:24;12.07;;;4.72;;
25938;SDS011;13739;51.172;4.466;2023-03-21T04:42:50;15.55;;;4.68;;
25938;SDS011;13739;51.172;4.466;2023-03-21T04:45:16;14.95;;;4.72;;
25938;SDS011;13739;51.172;4.466;2023-03-21T04:47:41;15.35;;;4.97;;
25938;SDS011;13739;51.172;4.466;2023-03-21T04:50:07;15.75;;;5.13;;
25938;SDS011;13739;51.172;4.466;2023-03-21T04:52:34;11.48;;;4.30;;
25938;SDS011;13739;51.172;4.466;2023-03-21T04:55:00;19.08;;;5.57;;
25938;SDS011;13739;51.172;4.466;2023-03-21T04:57:26;13.55;;;4.30;;
25938;SDS011;13739;51.172;4.466;2023-03-21T04:59:52;14.10;;;5.13;;
25938;SDS011;13739;51.172;4.466;2023-03-21T05:02:18;13.63;;;4.63;;
25938;SDS011;13739;51.172;4.466;2023-03-21T05:04:43;14.32;;;4.25;;
25938;SDS011;13739;51.172;4.466;2023-03-21T05:07:09;18.75;;;4.80;;
25938;SDS011;13739;51.172;4.466;2023-03-21T05:09:35;15.45;;;4.53;;
25938;SDS011;13739;51.172;4.466;2023-03-21T05:12:01;14.80;;;4.95;;
25938;SDS011;13739;51.172;4.466;2023-03-21T05:14:27;12.43;;;4.65;;
25938;SDS011;13739;51.172;4.466;2023-03-21T05:16:53;14.88;;;4.35;;
25938;SDS011;13739;51.172;4.466;2023-03-21T05:19:29;15.95;;;5.00;;
25938;SDS011;13739;51.172;4.466;2023-03-21T05:22:03;16.13;;;4.97;;
25938;SDS011;13739;51.172;4.466;2023-03-21T05:24:30;35.38;;;5.75;;
25938;SDS011;13739;51.172;4.466;2023-03-21T05:26:57;18.83;;;5.40;;
25938;SDS011;13739;51.172;4.466;2023-03-21T05:29:27;11.25;;;4.30;;
25938;SDS011;13739;51.172;4.466;2023-03-21T05:31:56;12.38;;;4.97;;
25938;SDS011;13739;51.172;4.466;2023-03-21T05:34:23;20.02;;;5.78;;
25938;SDS011;13739;51.172;4.466;2023-03-21T05:36:51;12.05;;;5.22;;
25938;SDS011;13739;51.172;4.466;2023-03-21T05:39:17;23.80;;;6.30;;
25938;SDS011;13739;51.172;4.466;2023-03-21T05:41:43;15.60;;;5.65;;
25938;SDS011;13739;51.172;4.466;2023-03-21T05:44:09;14.55;;;5.53;;
25938;SDS011;13739;51.172;4.466;2023-03-21T05:46:34;17.40;;;5.85;;
25938;SDS011;13739;51.172;4.466;2023-03-21T05:49:01;18.58;;;5.38;;
25938;SDS011;13739;51.172;4.466;2023-03-21T05:51:26;18.40;;;5.60;;
25938;SDS011;13739;51.172;4.466;2023-03-21T05:53:52;14.48;;;5.38;;
25938;SDS011;13739;51.172;4.466;2023-03-21T05:56:18;11.25;;;5.30;;
25938;SDS011;13739;51.172;4.466;2023-03-21T05:58:44;18.02;;;6.25;;
25938;SDS011;13739;51.172;4.466;2023-03-21T06:01:10;17.98;;;5.93;;
25938;SDS011;13739;51.172;4.466;2023-03-21T06:03:36;16.77;;;6.35;;
25938;SDS011;13739;51.172;4.466;2023-03-21T06:06:01;17.05;;;5.60;;
25938;SDS011;13739;51.172;4.466;2023-03-21T06:08:28;22.30;;;7.00;;
25938;SDS011;13739;51.172;4.466;2023-03-21T06:10:54;15.82;;;6.45;;
25938;SDS011;13739;51.172;4.466;2023-03-21T06:13:20;14.75;;;6.03;;
25938;SDS011;13739;51.172;4.466;2023-03-21T06:15:46;16.67;;;6.60;;
25938;SDS011;13739;51.172;4.466;2023-03-21T06:18:11;21.20;;;6.78;;
25938;SDS011;13739;51.172;4.466;2023-03-21T06:20:37;19.20;;;6.90;;
25938;SDS011;13739;51.172;4.466;2023-03-21T06:23:03;19.55;;;7.00;;
25938;SDS011;13739;51.172;4.466;2023-03-21T06:25:28;18.65;;;7.35;;
25938;SDS011;13739;51.172;4.466;2023-03-21T06:27:54;22.42;;;8.02;;
25938;SDS011;13739;51.172;4.466;2023-03-21T06:30:20;23.30;;;7.70;;
25938;SDS011;13739;51.172;4.466;2023-03-21T06:32:45;18.95;;;7.82;;
25938;SDS011;13739;51.172;4.466;2023-03-21T06:35:11;19.67;;;8.40;;
25938;SDS011;13739;51.172;4.466;2023-03-21T06:37:37;24.00;;;7.47;;
25938;SDS011;13739;51.172;4.466;2023-03-21T06:40:03;17.63;;;7.05;;
25938;SDS011;13739;51.172;4.466;2023-03-21T06:42:31;18.95;;;8.00;;
25938;SDS011;13739;51.172;4.466;2023-03-21T06:44:56;19.85;;;7.30;;
25938;SDS011;13739;51.172;4.466;2023-03-21T06:47:22;21.88;;;7.18;;
25938;SDS011;13739;51.172;4.466;2023-03-21T06:49:48;16.45;;;7.22;;
25938;SDS011;13739;51.172;4.466;2023-03-21T06:52:13;22.42;;;6.30;;
25938;SDS011;13739;51.172;4.466;2023-03-21T06:54:39;14.77;;;6.53;;
25938;SDS011;13739;51.172;4.466;2023-03-21T06:57:05;19.73;;;5.68;;
25938;SDS011;13739;51.172;4.466;2023-03-21T06:59:30;15.63;;;5.68;;
25938;SDS011;13739;51.172;4.466;2023-03-21T07:01:56;16.27;;;6.07;;
25938;SDS011;13739;51.172;4.466;2023-03-21T07:04:22;13.88;;;5.35;;
25938;SDS011;13739;51.172;4.466;2023-03-21T07:06:48;14.95;;;5.05;;
25938;SDS011;13739;51.172;4.466;2023-03-21T07:09:13;17.35;;;5.97;;
25938;SDS011;13739;51.172;4.466;2023-03-21T07:11:41;11.45;;;4.95;;
25938;SDS011;13739;51.172;4.466;2023-03-21T07:14:07;15.60;;;5.47;;
25938;SDS011;13739;51.172;4.466;2023-03-21T07:16:33;14.60;;;5.38;;
25938;SDS011;13739;51.172;4.466;2023-03-21T07:18:59;17.58;;;6.28;;
25938;SDS011;13739;51.172;4.466;2023-03-21T07:21:24;19.70;;;5.63;;
25938;SDS011;13739;51.172;4.466;2023-03-21T07:23:50;14.05;;;5.13;;
25938;SDS011;13739;51.172;4.466;2023-03-21T07:26:16;17.67;;;6.30;;
25938;SDS011;13739;51.172;4.466;2023-03-21T07:28:42;16.63;;;5.97;;
25938;SDS011;13739;51.172;4.466;2023-03-21T07:31:12;14.88;;;5.43;;
25938;SDS011;13739;51.172;4.466;2023-03-21T07:33:40;15.05;;;6.50;;
25938;SDS011;13739;51.172;4.466;2023-03-21T07:36:08;18.40;;;6.68;;
25938;SDS011;13739;51.172;4.466;2023-03-21T07:38:36;18.33;;;6.32;;
25938;SDS011;13739;51.172;4.466;2023-03-21T07:41:03;13.68;;;6.13;;
25938;SDS011;13739;51.172;4.466;2023-03-21T07:43:29;18.17;;;6.80;;
25938;SDS011;13739;51.172;4.466;2023-03-21T07:45:55;18.00;;;6.78;;
25938;SDS011;13739;51.172;4.466;2023-03-21T07:48:22;19.52;;;5.63;;
25938;SDS011;13739;51.172;4.466;2023-03-21T07:50:47;24.00;;;6.70;;
25938;SDS011;13739;51.172;4.466;2023-03-21T07:53:13;21.30;;;6.65;;
25938;SDS011;13739;51.172;4.466;2023-03-21T07:55:39;19.58;;;6.80;;
25938;SDS011;13739;51.172;4.466;2023-03-21T07:58:05;17.90;;;7.00;;
25938;SDS011;13739;51.172;4.466;2023-03-21T08:00:31;14.13;;;6.30;;
25938;SDS011;13739;51.172;4.466;2023-03-21T08:02:57;20.15;;;7.40;;
25938;SDS011;13739;51.172;4.466;2023-03-21T08:05:25;14.65;;;6.10;;
25938;SDS011;13739;51.172;4.466;2023-03-21T08:07:51;15.73;;;5.95;;
25938;SDS011;13739;51.172;4.466;2023-03-21T08:10:17;14.98;;;6.68;;
25938;SDS011;13739;51.172;4.466;2023-03-21T08:12:43;15.60;;;6.70;;
25938;SDS011;13739;51.172;4.466;2023-03-21T08:15:10;20.40;;;6.65;;
25938;SDS011;13739;51.172;4.466;2023-03-21T08:17:37;21.10;;;6.90;;
25938;SDS011;13739;51.172;4.466;2023-03-21T08:20:07;17.30;;;6.45;;
25938;SDS011;13739;51.172;4.466;2023-03-21T08:22:35;16.40;;;6.45;;
25938;SDS011;13739;51.172;4.466;2023-03-21T08:25:01;18.23;;;7.00;;
25938;SDS011;13739;51.172;4.466;2023-03-21T08:27:32;13.45;;;6.28;;
25938;SDS011;13739;51.172;4.466;2023-03-21T08:29:58;17.90;;;6.35;;
25938;SDS011;13739;51.172;4.466;2023-03-21T08:32:24;13.55;;;5.78;;
25938;SDS011;13739;51.172;4.466;2023-03-21T08:34:54;24.60;;;6.75;;
25938;SDS011;13739;51.172;4.466;2023-03-21T08:37:23;16.40;;;6.43;;
25938;SDS011;13739;51.172;4.466;2023-03-21T08:39:48;21.75;;;5.95;;
25938;SDS011;13739;51.172;4.466;2023-03-21T08:42:15;15.15;;;6.18;;
25938;SDS011;13739;51.172;4.466;2023-03-21T08:44:41;15.38;;;5.82;;
25938;SDS011;13739;51.172;4.466;2023-03-21T08:47:06;13.88;;;5.38;;
25938;SDS011;13739;51.172;4.466;2023-03-21T08:49:33;9.85;;;4.97;;
25938;SDS011;13739;51.172;4.466;2023-03-21T08:52:00;12.50;;;4.90;;
25938;SDS011;13739;51.172;4.466;2023-03-21T08:54:26;16.65;;;5.15;;
25938;SDS011;13739;51.172;4.466;2023-03-21T08:56:51;11.63;;;4.95;;
25938;SDS011;13739;51.172;4.466;2023-03-21T08:59:17;12.93;;;4.78;;
25938;SDS011;13739;51.172;4.466;2023-03-21T09:01:43;12.48;;;4.55;;
25938;SDS011;13739;51.172;4.466;2023-03-21T09:04:09;10.75;;;3.83;;
25938;SDS011;13739;51.172;4.466;2023-03-21T09:06:38;17.85;;;4.28;;
25938;SDS011;13739;51.172;4.466;2023-03-21T09:09:12;7.63;;;3.63;;
25938;SDS011;13739;51.172;4.466;2023-03-21T09:11:38;10.55;;;4.00;;
25938;SDS011;13739;51.172;4.466;2023-03-21T09:14:04;11.30;;;3.55;;
25938;SDS011;13739;51.172;4.466;2023-03-21T09:16:30;10.43;;;3.78;;
25938;SDS011;13739;51.172;4.466;2023-03-21T09:18:56;6.97;;;3.53;;
25938;SDS011;13739;51.172;4.466;2023-03-21T09:21:23;15.52;;;3.78;;
25938;SDS011;13739;51.172;4.466;2023-03-21T09:23:51;11.55;;;4.00;;
25938;SDS011;13739;51.172;4.466;2023-03-21T09:26:20;12.30;;;4.03;;
25938;SDS011;13739;51.172;4.466;2023-03-21T09:28:47;9.48;;;3.17;;
25938;SDS011;13739;51.172;4.466;2023-03-21T09:31:14;12.27;;;3.28;;
25938;SDS011;13739;51.172;4.466;2023-03-21T09:33:46;11.63;;;3.67;;
25938;SDS011;13739;51.172;4.466;2023-03-21T09:36:13;11.35;;;3.75;;
25938;SDS011;13739;51.172;4.466;2023-03-21T09:38:41;9.20;;;3.75;;
25938;SDS011;13739;51.172;4.466;2023-03-21T09:47:19;9.25;;;3.17;;
25938;SDS011;13739;51.172;4.466;2023-03-21T09:50:01;10.82;;;3.60;;
25938;SDS011;13739;51.172;4.466;2023-03-21T09:55:08;9.60;;;3.15;;
25938;SDS011;13739;51.172;4.466;2023-03-21T09:58:07;12.20;;;3.72;;
25938;SDS011;13739;51.172;4.466;2023-03-21T10:01:15;5.33;;;2.90;;
25938;SDS011;13739;51.172;4.466;2023-03-21T10:03:52;7.00;;;2.88;;
25938;SDS011;13739;51.172;4.466;2023-03-21T10:06:20;7.57;;;3.40;;
25938;SDS011;13739;51.172;4.466;2023-03-21T10:08:53;11.82;;;3.50;;
25938;SDS011;13739;51.172;4.466;2023-03-21T10:14:18;11.40;;;3.35;;
25938;SDS011;13739;51.172;4.466;2023-03-21T10:17:16;11.27;;;3.30;;
25938;SDS011;13739;51.172;4.466;2023-03-21T10:20:03;10.45;;;3.33;;
25938;SDS011;13739;51.172;4.466;2023-03-21T10:22:38;8.07;;;3.08;;
25938;SDS011;13739;51.172;4.466;2023-03-21T10:25:04;8.48;;;3.33;;
25938;SDS011;13739;51.172;4.466;2023-03-21T10:27:32;8.93;;;3.38;;
25938;SDS011;13739;51.172;4.466;2023-03-21T10:30:00;11.40;;;3.05;;
25938;SDS011;13739;51.172;4.466;2023-03-21T10:32:26;9.57;;;3.03;;
25938;SDS011;13739;51.172;4.466;2023-03-21T10:34:55;11.80;;;3.40;;
25938;SDS011;13739;51.172;4.466;2023-03-21T10:37:22;10.10;;;3.22;;
25938;SDS011;13739;51.172;4.466;2023-03-21T10:39:50;8.48;;;2.80;;
25938;SDS011;13739;51.172;4.466;2023-03-21T10:42:18;6.15;;;2.72;;
25938;SDS011;13739;51.172;4.466;2023-03-21T10:44:50;8.23;;;3.08;;
25938;SDS011;13739;51.172;4.466;2023-03-21T10:47:18;9.77;;;3.00;;
25938;SDS011;13739;51.172;4.466;2023-03-21T10:50:05;11.57;;;2.90;;
25938;SDS011;13739;51.172;4.466;2023-03-21T10:52:37;10.75;;;3.25;;
25938;SDS011;13739;51.172;4.466;2023-03-21T10:57:44;8.80;;;3.00;;
25938;SDS011;13739;51.172;4.466;2023-03-21T11:00:12;7.63;;;3.03;;
25938;SDS011;13739;51.172;4.466;2023-03-21T11:02:47;11.00;;;3.35;;
25938;SDS011;13739;51.172;4.466;2023-03-21T11:05:21;7.57;;;3.42;;
25938;SDS011;13739;51.172;4.466;2023-03-21T11:07:59;9.30;;;2.95;;
25938;SDS011;13739;51.172;4.466;2023-03-21T11:10:37;9.02;;;3.47;;
25938;SDS011;13739;51.172;4.466;2023-03-21T11:13:17;10.32;;;3.55;;
25938;SDS011;13739;51.172;4.466;2023-03-21T11:15:52;8.50;;;3.97;;
25938;SDS011;13739;51.172;4.466;2023-03-21T11:18:25;9.52;;;3.45;;
25938;SDS011;13739;51.172;4.466;2023-03-21T11:21:01;9.53;;;3.00;;
25938;SDS011;13739;51.172;4.466;2023-03-21T11:23:30;7.65;;;3.40;;
25938;SDS011;13739;51.172;4.466;2023-03-21T11:25:58;11.85;;;3.50;;
25938;SDS011;13739;51.172;4.466;2023-03-21T11:28:31;7.43;;;3.50;;
25938;SDS011;13739;51.172;4.466;2023-03-21T11:31:01;5.65;;;2.55;;
25938;SDS011;13739;51.172;4.466;2023-03-21T11:34:12;14.13;;;3.28;;
25938;SDS011;13739;51.172;4.466;2023-03-21T11:38:51;8.27;;;2.85;;
25938;SDS011;13739;51.172;4.466;2023-03-21T11:41:21;7.28;;;3.35;;
25938;SDS011;13739;51.172;4.466;2023-03-21T11:43:50;8.48;;;3.13;;
25938;SDS011;13739;51.172;4.466;2023-03-21T11:46:21;8.75;;;2.97;;
25938;SDS011;13739;51.172;4.466;2023-03-21T11:48:48;9.48;;;3.15;;
25938;SDS011;13739;51.172;4.466;2023-03-21T11:51:18;8.95;;;3.67;;
25938;SDS011;13739;51.172;4.466;2023-03-21T11:54:10;11.02;;;3.35;;
25938;SDS011;13739;51.172;4.466;2023-03-21T12:02:23;8.65;;;3.42;;
25938;SDS011;13739;51.172;4.466;2023-03-21T12:05:09;10.07;;;3.60;;
25938;SDS011;13739;51.172;4.466;2023-03-21T12:18:24;8.30;;;3.38;;
25938;SDS011;13739;51.172;4.466;2023-03-21T12:29:34;9.15;;;4.22;;
25938;SDS011;13739;51.172;4.466;2023-03-21T12:37:08;7.30;;;3.38;;
25938;SDS011;13739;51.172;4.466;2023-03-21T12:39:46;9.60;;;3.70;;
25938;SDS011;13739;51.172;4.466;2023-03-21T12:47:51;10.95;;;4.15;;
25938;SDS011;13739;51.172;4.466;2023-03-21T12:50:23;8.00;;;4.28;;
25938;SDS011;13739;51.172;4.466;2023-03-21T12:52:54;10.07;;;3.90;;
25938;SDS011;13739;51.172;4.466;2023-03-21T12:55:24;12.48;;;3.70;;
25938;SDS011;13739;51.172;4.466;2023-03-21T13:00:53;7.25;;;3.25;;
25938;SDS011;13739;51.172;4.466;2023-03-21T13:03:30;6.38;;;3.10;;
25938;SDS011;13739;51.172;4.466;2023-03-21T13:06:00;6.90;;;3.97;;
25938;SDS011;13739;51.172;4.466;2023-03-21T13:11:06;10.07;;;3.38;;
25938;SDS011;13739;51.172;4.466;2023-03-21T13:13:41;7.20;;;3.30;;
25938;SDS011;13739;51.172;4.466;2023-03-21T13:22:05;6.80;;;2.90;;
25938;SDS011;13739;51.172;4.466;2023-03-21T13:24:44;6.15;;;3.03;;
25938;SDS011;13739;51.172;4.466;2023-03-21T13:27:26;7.07;;;3.25;;
25938;SDS011;13739;51.172;4.466;2023-03-21T13:29:59;6.13;;;3.17;;
25938;SDS011;13739;51.172;4.466;2023-03-21T13:32:34;9.27;;;3.20;;
25938;SDS011;13739;51.172;4.466;2023-03-21T13:35:20;8.02;;;3.55;;
25938;SDS011;13739;51.172;4.466;2023-03-21T13:37:58;5.82;;;2.95;;
25938;SDS011;13739;51.172;4.466;2023-03-21T13:40:55;9.23;;;2.88;;
25938;SDS011;13739;51.172;4.466;2023-03-21T13:46:52;6.72;;;3.72;;
25938;SDS011;13739;51.172;4.466;2023-03-21T13:49:34;5.43;;;2.90;;
25938;SDS011;13739;51.172;4.466;2023-03-21T13:52:23;7.82;;;2.83;;
25938;SDS011;13739;51.172;4.466;2023-03-21T13:54:52;5.25;;;3.40;;
25938;SDS011;13739;51.172;4.466;2023-03-21T13:57:41;9.77;;;3.38;;
25938;SDS011;13739;51.172;4.466;2023-03-21T14:00:13;6.03;;;2.80;;
25938;SDS011;13739;51.172;4.466;2023-03-21T14:03:06;6.53;;;2.85;;
25938;SDS011;13739;51.172;4.466;2023-03-21T14:05:32;5.68;;;2.67;;
25938;SDS011;13739;51.172;4.466;2023-03-21T14:08:03;6.68;;;3.15;;
25938;SDS011;13739;51.172;4.466;2023-03-21T14:13:07;6.53;;;3.20;;
25938;SDS011;13739;51.172;4.466;2023-03-21T14:15:43;4.88;;;3.08;;
25938;SDS011;13739;51.172;4.466;2023-03-21T14:18:20;9.68;;;3.20;;
25938;SDS011;13739;51.172;4.466;2023-03-21T14:20:54;7.80;;;3.60;;
25938;SDS011;13739;51.172;4.466;2023-03-21T14:23:21;7.40;;;3.28;;
25938;SDS011;13739;51.172;4.466;2023-03-21T14:25:48;7.75;;;3.15;;
25938;SDS011;13739;51.172;4.466;2023-03-21T14:28:16;8.73;;;3.20;;
25938;SDS011;13739;51.172;4.466;2023-03-21T14:36:19;7.65;;;3.22;;
25938;SDS011;13739;51.172;4.466;2023-03-21T14:39:11;7.22;;;3.42;;
25938;SDS011;13739;51.172;4.466;2023-03-21T14:41:43;11.40;;;3.50;;
25938;SDS011;13739;51.172;4.466;2023-03-21T14:44:18;9.57;;;3.80;;
25938;SDS011;13739;51.172;4.466;2023-03-21T14:46:49;5.85;;;3.17;;
25938;SDS011;13739;51.172;4.466;2023-03-21T14:49:24;6.55;;;4.07;;
25938;SDS011;13739;51.172;4.466;2023-03-21T14:51:55;7.47;;;3.78;;
25938;SDS011;13739;51.172;4.466;2023-03-21T14:54:43;5.93;;;3.63;;
25938;SDS011;13739;51.172;4.466;2023-03-21T14:57:11;7.70;;;3.90;;
25938;SDS011;13739;51.172;4.466;2023-03-21T14:59:39;9.43;;;4.30;;
25938;SDS011;13739;51.172;4.466;2023-03-21T15:02:14;6.45;;;4.07;;
25938;SDS011;13739;51.172;4.466;2023-03-21T15:04:41;7.05;;;4.18;;
25938;SDS011;13739;51.172;4.466;2023-03-21T15:07:21;10.05;;;4.72;;
25938;SDS011;13739;51.172;4.466;2023-03-21T15:09:57;9.02;;;4.38;;
25938;SDS011;13739;51.172;4.466;2023-03-21T15:12:27;7.97;;;4.90;;
25938;SDS011;13739;51.172;4.466;2023-03-21T15:14:53;8.27;;;4.78;;
25938;SDS011;13739;51.172;4.466;2023-03-21T15:17:19;9.95;;;4.82;;
25938;SDS011;13739;51.172;4.466;2023-03-21T15:19:46;7.97;;;4.35;;
25938;SDS011;13739;51.172;4.466;2023-03-21T15:22:14;8.18;;;5.03;;
25938;SDS011;13739;51.172;4.466;2023-03-21T15:24:46;11.60;;;4.97;;
25938;SDS011;13739;51.172;4.466;2023-03-21T15:27:16;11.30;;;4.82;;
25938;SDS011;13739;51.172;4.466;2023-03-21T15:29:44;10.55;;;5.13;;
25938;SDS011;13739;51.172;4.466;2023-03-21T15:32:16;10.63;;;5.40;;
25938;SDS011;13739;51.172;4.466;2023-03-21T15:34:46;10.40;;;5.10;;
25938;SDS011;13739;51.172;4.466;2023-03-21T15:37:15;16.13;;;5.57;;
25938;SDS011;13739;51.172;4.466;2023-03-21T15:39:45;7.78;;;5.38;;
25938;SDS011;13739;51.172;4.466;2023-03-21T15:44:52;12.40;;;5.85;;
25938;SDS011;13739;51.172;4.466;2023-03-21T15:47:40;10.48;;;4.90;;
25938;SDS011;13739;51.172;4.466;2023-03-21T15:50:25;9.95;;;4.75;;
25938;SDS011;13739;51.172;4.466;2023-03-21T15:52:57;10.57;;;4.55;;
25938;SDS011;13739;51.172;4.466;2023-03-21T15:55:36;7.82;;;4.05;;
25938;SDS011;13739;51.172;4.466;2023-03-21T15:58:17;13.63;;;4.90;;
25938;SDS011;13739;51.172;4.466;2023-03-21T16:00:49;8.57;;;4.60;;
25938;SDS011;13739;51.172;4.466;2023-03-21T16:03:21;10.90;;;4.50;;
25938;SDS011;13739;51.172;4.466;2023-03-21T16:06:15;8.60;;;4.78;;
25938;SDS011;13739;51.172;4.466;2023-03-21T16:08:52;8.35;;;4.32;;
25938;SDS011;13739;51.172;4.466;2023-03-21T16:11:36;8.23;;;4.20;;
25938;SDS011;13739;51.172;4.466;2023-03-21T16:18:55;9.32;;;5.60;;
25938;SDS011;13739;51.172;4.466;2023-03-21T16:21:24;8.15;;;4.72;;
25938;SDS011;13739;51.172;4.466;2023-03-21T16:23:51;8.30;;;5.20;;
25938;SDS011;13739;51.172;4.466;2023-03-21T16:26:18;10.82;;;5.30;;
25938;SDS011;13739;51.172;4.466;2023-03-21T16:28:47;13.13;;;5.03;;
25938;SDS011;13739;51.172;4.466;2023-03-21T16:31:14;8.00;;;4.72;;
25938;SDS011;13739;51.172;4.466;2023-03-21T16:33:42;7.93;;;4.55;;
25938;SDS011;13739;51.172;4.466;2023-03-21T16:36:30;7.93;;;4.82;;
25938;SDS011;13739;51.172;4.466;2023-03-21T16:38:56;12.07;;;4.60;;
25938;SDS011;13739;51.172;4.466;2023-03-21T16:41:22;8.57;;;4.45;;
25938;SDS011;13739;51.172;4.466;2023-03-21T16:43:50;6.97;;;4.20;;
25938;SDS011;13739;51.172;4.466;2023-03-21T16:46:25;6.88;;;4.15;;
25938;SDS011;13739;51.172;4.466;2023-03-21T16:48:54;10.75;;;4.50;;
25938;SDS011;13739;51.172;4.466;2023-03-21T16:51:31;7.45;;;4.30;;
25938;SDS011;13739;51.172;4.466;2023-03-21T16:53:58;12.32;;;4.93;;